x

Buoy I01 - Eastern Maine Shelf (44034) Wave Buoy

1:04am - Mon 21st Aug 2017 All times are EDT. -4 hours from GMT.

  • Sig Wave height 2.3ft
  • Peak Period 6s
  • Wind
    7mph, 9mph gusts
  • Sea Temp 54°f
  • Air Temp 58°f
  • Sea Pressure 1016.5mb
  • Buoy I01 - Eastern Maine Shelf
  • Buoy I01 - Eastern Maine Shelf

More Historic Weather Station data

Upgrade to MSW Pro to gain access to the past 30 days of data for over 8000 Wavebouys and Weather Stations around the globe.

Join

Comparision Forecast

View Surf forecast
   
Mon 08/21 1:04am 2.5ft 6s 7 9 mph 1016.5mb 54f 58f
12:04am 2.5ft 6s 4 9 mph 1015.9mb 54f 59f
Sun 08/20 11:04pm 2ft 6s 7 9 mph 1015.3mb 54f 58f
10:04pm 2ft 6s 4 7 mph 1015.1mb 54f 62f
9:04pm 2ft 6s 7 9 mph 1014.3mb 54f 59f
8:04pm 2.5ft 6s 4 7 mph 1013.4mb 54f 61f
7:04pm 2.5ft 8s 9 9 mph 1012.9mb 54f 60f
6:04pm 2.5ft 8s 11 11 mph 1012.5mb 54f 60f
5:04pm 3ft 8s 11 11 mph 1012.1mb 54f 60f
4:04pm 2.5ft 8s 11 11 mph 1012mb 54f 59f
3:04pm 3ft 6s 9 9 mph 1011.8mb 54f 58f
2:04pm 3ft 6s 9 9 mph 1011.8mb 54f 58f
1:04pm 3.5ft 6s 7 7 mph 1011.6mb 54f 57f
12:04pm 3.5ft 8s 9 9 mph 1011.3mb 54f 57f
11:04am 3.5ft 6s 9 11 mph 1011.2mb 54f 56f
10:04am 3.5ft 6s 7 7 mph 1010.7mb 54f 56f
9:04am 3.5ft 6s 4 4 mph 1010.5mb 54f 56f
8:04am 3.5ft 6s 7 7 mph 1010.5mb 54f 56f
7:04am 3.5ft 6s 7 7 mph 1010.3mb 53f 56f
6:04am 3.5ft 8s 7 7 mph 1009.5mb 54f 56f
5:04am 3.5ft 8s 4 7 mph 1009.4mb 54f 56f
4:04am 3ft 6s 4 4 mph 1009mb 54f 56f
3:04am 3ft 6s 4 4 mph 1008.9mb 54f 56f
2:04am 3.5ft 8s 2 2 mph 1009.2mb 52f 56f
12:04am 3.5ft 6s 4 7 mph 1009.4mb 53f 56f
Sat 08/19 11:04pm 4ft 6s 7 9 mph 1009.2mb 54f 56f
10:04pm 4.5ft 6s 7 7 mph 1008.9mb 54f 56f
9:04pm 4.5ft 6s 4 7 mph 1008.9mb 54f 56f
8:04pm 4.5ft 6s 11 11 mph 1008.6mb 54f 57f
7:04pm 5ft 6s 7 7 mph 1007.7mb 54f 56f
6:04pm 4.5ft 6s 4 4 mph 1007.8mb 54f 58f
5:04pm 4.5ft 6s 4 4 mph 1008mb 55f 58f
4:04pm 4ft 5s 2 4 mph 1008.1mb 55f 59f
3:04pm 4.5ft 6s 4 4 mph 1008mb 55f 58f
2:04pm 5ft 6s 4 4 mph 1008mb 55f 57f
1:04pm 4ft 6s 2 4 mph 1008mb 53f 57f
12:04pm 4.5ft 6s 4 7 mph 1008.3mb 53f 56f
11:04am 5ft 6s 7 7 mph 1008.1mb 52f 56f
10:04am 6ft 6s 7 9 mph 1008mb 53f 58f
9:04am 5ft 6s 7 7 mph 1007.9mb 52f 58f
8:04am 5.5ft 6s 7 7 mph 1008.4mb 52f 58f
7:04am 5.5ft 6s 4 7 mph 1008.4mb 52f 58f
6:04am 6ft 6s 11 11 mph 1008.1mb 52f 58f
5:04am 5.5ft 6s 9 11 mph 1007.9mb 52f 57f
4:04am 5ft 5s 9 11 mph 1008.2mb 52f 57f
3:04am 6ft 5s 22 27 mph 1009mb 52f 59f
2:04am 4.5ft 5s 20 27 mph 1010mb 53f 59f
1:04am 4.5ft 5s 20 22 mph 1010.8mb 52f 57f
12:04am 4.5ft 5s 22 25 mph 1011.4mb 53f 58f
Fri 08/18 11:04pm 3ft 4s 20 22 mph 1012.1mb 53f 58f
10:04pm 2.5ft 6s 16 20 mph 1012.9mb 53f 57f
9:04pm 2.5ft 8s 11 13 mph 1013.4mb 53f 56f
8:04pm 2.5ft 8s 9 11 mph 1013.8mb 53f 56f
7:04pm 2ft 6s 9 9 mph 1013.8mb 53f 56f
6:04pm 2.5ft 8s 9 11 mph 1013.9mb 53f 57f
5:04pm 2.5ft 8s 4 4 mph 1014.5mb 53f 56f
4:04pm 2.5ft 8s 9 9 mph 1014.6mb 53f 56f
2:04pm 2.5ft 8s 9 9 mph 1015.4mb 53f 56f
1:04pm 2ft 8s 9 9 mph 1015.7mb 53f 56f
12:04pm 2ft 8s 4 7 mph 1015.9mb 53f 56f
11:04am 2ft 11s 9 9 mph 1015.4mb 53f 56f
10:04am 2ft 11s 7 7 mph 1015.4mb 53f 57f
9:04am 2.5ft 11s 7 7 mph 1015.3mb 53f 56f
8:04am 2.5ft 8s 7 7 mph 1015mb 53f 56f
7:04am 2.5ft 8s 4 7 mph 1015.1mb 52f 55f
6:04am 2.5ft 8s 7 9 mph 1014.8mb 52f 55f
5:04am 2.5ft 8s 4 4 mph 1014.8mb 52f 56f
4:04am 3ft 8s 2 4 mph 1014.7mb 53f 57f
3:04am 2.5ft 8s 4 4 mph 1014.7mb 54f 58f
2:04am 2.5ft 11s 4 7 mph 1015.1mb 55f 58f